FRSO2: Muddy Boggy Cr, Farris, OK

Data processed at Fri Mar 09 2018 23:38


All information presented herein is the property of the government of the United States of America and may be revised or deleted at any time without prior notice.
Dissemination of this information without the expressed written consent of the Public Affairs Office, Tulsa District U.S. Army Corps of Engineers is strictly prohibited.
These data are gathered electronically and, as presented, have not undergone any form of quality control. These data are not guaranteed to be valid or correct.
Go to home page.
Go to station list.

Upstream stations:

Downstream station:
Previous Day
Next Day
Current Day
    
SHEF ID:       FRSO2     Muddy Boggy Creek near Farris, O
STATION TYPE:  

               PRECIP PRECIP(A)     STAGE  RIV-FLOW  BAT-LOAD
                   in        in        ft       cfs      volt
              Ccp-Rev   Ccp-Rev   Ccp-Rev   Ccp-Rev   Ccp-Rev
(US/Central)
03/07 00:00      0.00      ----     14.22       969     12.25
03/07 01:00      0.00      ----     14.13       948     12.25
03/07 02:00      0.00      ----     14.09       939     12.25
03/07 03:00      0.00      ----     14.02       924     12.25
03/07 04:00      0.00      ----     13.98       915     12.25
03/07 05:00      0.00      ----     13.95       909     12.17
03/07 06:00      0.00      ----     13.94       906     12.17
03/07 07:00      0.00      ----     13.91       900     12.17
03/07 08:00      0.00      ----     13.85       887     12.17
03/07 09:00      0.00      ----     13.84       885     12.17
03/07 10:00      0.00      ----     13.84       885     12.25
03/07 11:00      0.00      ----     13.83       883     12.25
03/07 12:00      0.00      ----     13.81       878     12.25
03/07 13:00      0.00      ----     13.79       874     12.25
03/07 14:00      0.00      ----     13.77       870     12.25
03/07 15:00      0.00      ----     13.75       866     12.25
03/07 16:00      0.00      ----     13.75       866     12.25
03/07 17:00      0.00      ----     13.76       868     12.33
03/07 18:00      0.00      ----     13.76       868     12.33
03/07 19:00      0.00      ----     13.77       870     12.25
03/07 20:00      0.00      ----     13.75       866     12.25
03/07 21:00      0.00      ----     13.73       861     12.25
03/07 22:00      0.00      ----     13.71       857     12.25
03/07 23:00      0.00      ----     13.73       861     12.25